createdAt,value
2018-09-13T00:01:14.025Z,8.00
2018-09-13T00:03:41.686Z,9.80
2018-09-13T00:06:09.301Z,8.83
2018-09-13T00:08:37.028Z,8.83
2018-09-13T00:11:04.951Z,8.20
2018-09-13T00:13:32.601Z,10.87
2018-09-13T00:16:00.209Z,8.77
2018-09-13T00:18:27.829Z,10.63
2018-09-13T00:20:55.481Z,9.07
2018-09-13T00:23:23.153Z,8.80
2018-09-13T00:25:50.840Z,7.97
2018-09-13T00:28:18.490Z,9.90
2018-09-13T00:30:46.141Z,11.60
2018-09-13T00:33:13.810Z,10.10
2018-09-13T00:35:41.428Z,11.03
2018-09-13T00:38:09.097Z,11.37
2018-09-13T00:40:36.750Z,13.10
2018-09-13T00:43:04.397Z,10.40
2018-09-13T00:45:32.057Z,12.00
2018-09-13T00:47:59.681Z,11.83
2018-09-13T00:50:27.321Z,13.30
2018-09-13T00:52:54.986Z,10.83
2018-09-13T00:55:22.580Z,13.33
2018-09-13T00:57:50.127Z,9.03
2018-09-13T01:00:17.856Z,13.17
2018-09-13T01:02:45.386Z,11.47
2018-09-13T01:05:13.020Z,11.87
2018-09-13T01:07:40.704Z,12.73
2018-09-13T01:10:08.419Z,12.53
2018-09-13T01:12:36.071Z,11.60
2018-09-13T01:15:03.882Z,14.73
2018-09-13T01:17:31.492Z,13.17
2018-09-13T01:19:59.148Z,12.97
2018-09-13T01:22:26.725Z,11.67
2018-09-13T01:24:54.947Z,12.30
2018-09-13T01:27:23.270Z,12.77
2018-09-13T01:29:51.118Z,14.00
2018-09-13T01:32:18.927Z,15.97
2018-09-13T01:34:46.544Z,13.17
2018-09-13T01:37:14.175Z,13.20
2018-09-13T01:39:41.751Z,14.40
2018-09-13T01:42:09.362Z,12.73
2018-09-13T01:44:38.523Z,14.37
2018-09-13T01:47:06.187Z,14.23
2018-09-13T01:49:33.768Z,16.30
2018-09-13T01:52:01.321Z,16.27
2018-09-13T01:54:28.943Z,15.73
2018-09-13T01:56:56.592Z,16.07
2018-09-13T01:59:24.240Z,18.93
2018-09-13T02:01:52.103Z,17.10
2018-09-13T02:04:19.731Z,17.80
2018-09-13T02:06:47.333Z,22.43
2018-09-13T02:09:14.930Z,16.90
2018-09-13T02:11:42.543Z,15.20
2018-09-13T02:14:10.202Z,14.10
2018-09-13T02:16:37.988Z,16.13
2018-09-13T02:19:05.769Z,15.27
2018-09-13T02:21:33.375Z,15.67
2018-09-13T02:24:01.045Z,15.23
2018-09-13T02:26:28.694Z,13.90
2018-09-13T02:28:56.359Z,14.17
2018-09-13T02:31:23.972Z,16.10
2018-09-13T02:33:51.553Z,16.13
2018-09-13T02:36:19.273Z,14.97
2018-09-13T02:38:46.875Z,14.73
2018-09-13T02:41:14.473Z,13.60
2018-09-13T02:43:42.168Z,12.87
2018-09-13T02:46:09.815Z,13.97
2018-09-13T02:48:37.474Z,16.90
2018-09-13T02:51:05.068Z,15.40
2018-09-13T02:53:32.668Z,15.60
2018-09-13T02:56:00.168Z,14.63
2018-09-13T02:58:27.811Z,16.63
2018-09-13T03:00:55.422Z,14.83
2018-09-13T03:03:23.092Z,14.43
2018-09-13T03:05:50.760Z,14.00
2018-09-13T03:08:18.446Z,14.07
2018-09-13T03:10:46.189Z,14.23
2018-09-13T03:13:13.831Z,14.20
2018-09-13T03:15:41.412Z,17.63
2018-09-13T03:18:09.044Z,17.13
2018-09-13T03:20:36.696Z,15.23
2018-09-13T03:23:04.333Z,17.07
2018-09-13T03:25:31.915Z,16.10
2018-09-13T03:27:59.618Z,17.30
2018-09-13T03:30:27.312Z,15.13
2018-09-13T03:32:56.562Z,14.87
2018-09-13T03:35:24.372Z,15.53
2018-09-13T03:37:52.025Z,13.87
2018-09-13T03:40:19.644Z,15.47
2018-09-13T03:42:47.259Z,14.77
2018-09-13T03:45:14.883Z,14.80
2018-09-13T03:47:42.428Z,14.03
2018-09-13T03:50:10.126Z,13.70
2018-09-13T03:52:37.835Z,11.90
2018-09-13T03:55:05.476Z,12.67
2018-09-13T03:57:33.090Z,12.70
2018-09-13T04:00:00.716Z,14.30
2018-09-13T04:02:28.332Z,14.63
2018-09-13T04:04:55.979Z,13.17
2018-09-13T04:07:23.645Z,12.30
2018-09-13T04:09:51.258Z,14.37
2018-09-13T04:12:19.015Z,12.27
2018-09-13T04:14:46.944Z,13.23
2018-09-13T04:17:14.560Z,13.23
2018-09-13T04:19:44.384Z,12.67
2018-09-13T04:22:12.916Z,15.03
2018-09-13T04:24:40.802Z,13.27
2018-09-13T04:27:08.489Z,15.20
2018-09-13T04:29:36.123Z,12.87
2018-09-13T04:32:04.042Z,19.70
2018-09-13T04:34:31.604Z,12.00
2018-09-13T04:36:59.114Z,11.17
2018-09-13T04:39:26.799Z,13.63
2018-09-13T04:41:54.407Z,14.60
2018-09-13T04:44:22.022Z,13.60
2018-09-13T04:46:49.971Z,13.07
2018-09-13T04:49:17.711Z,13.20
2018-09-13T04:51:45.309Z,12.73
2018-09-13T04:54:12.926Z,13.43
2018-09-13T04:56:40.518Z,12.93
2018-09-13T04:59:08.333Z,13.40
2018-09-13T05:01:37.230Z,12.30
2018-09-13T05:04:04.912Z,15.37
2018-09-13T05:06:32.599Z,16.83
2018-09-13T05:09:00.168Z,15.33
2018-09-13T05:11:27.819Z,18.43
2018-09-13T05:13:55.451Z,16.93
2018-09-13T05:16:23.156Z,16.77
2018-09-13T05:18:50.851Z,18.07
2018-09-13T05:21:18.488Z,16.87
2018-09-13T05:23:46.101Z,17.77
2018-09-13T05:26:13.742Z,16.53
2018-09-13T05:28:41.386Z,16.57
2018-09-13T05:31:08.898Z,15.97
2018-09-13T05:33:36.578Z,17.37
2018-09-13T05:36:04.311Z,18.73
2018-09-13T05:38:31.923Z,18.67
2018-09-13T05:40:59.676Z,17.80
2018-09-13T05:43:27.247Z,19.83
2018-09-13T05:45:54.874Z,17.10
2018-09-13T05:48:23.247Z,20.97
2018-09-13T05:50:50.954Z,21.77
2018-09-13T05:53:18.672Z,24.17
2018-09-13T05:55:46.248Z,21.57
2018-09-13T05:58:13.867Z,24.83
2018-09-13T06:00:41.501Z,23.40
2018-09-13T06:03:11.475Z,23.70
2018-09-13T06:05:39.064Z,21.67
2018-09-13T06:08:06.736Z,24.53
2018-09-13T06:10:34.413Z,23.17
2018-09-13T06:13:02.097Z,26.60
2018-09-13T06:15:29.751Z,26.13
2018-09-13T06:17:57.386Z,27.10
2018-09-13T06:20:24.968Z,29.17
2018-09-13T06:22:52.611Z,29.17
2018-09-13T06:25:20.222Z,27.37
2018-09-13T06:27:47.942Z,26.13
2018-09-13T06:30:15.788Z,27.87
2018-09-13T06:32:43.419Z,28.73
2018-09-13T06:35:11.109Z,31.30
2018-09-13T06:37:38.662Z,31.70
2018-09-13T06:40:06.376Z,29.53
2018-09-13T06:42:33.938Z,30.77
2018-09-13T06:45:04.947Z,28.73
2018-09-13T06:47:32.507Z,26.60
2018-09-13T06:50:00.147Z,30.57
2018-09-13T06:52:27.749Z,26.27
2018-09-13T06:54:55.622Z,25.73
2018-09-13T06:57:23.581Z,29.17
2018-09-13T06:59:51.225Z,27.93
2018-09-13T07:04:22.773Z,27.57
2018-09-13T07:06:56.892Z,31.80
2018-09-13T07:09:24.568Z,28.73
2018-09-13T07:11:52.219Z,28.43
2018-09-13T07:14:19.851Z,29.63
2018-09-13T07:16:47.526Z,32.47
2018-09-13T07:19:15.325Z,31.03
2018-09-13T07:21:43.256Z,31.17
2018-09-13T07:24:10.925Z,29.00
2018-09-13T07:26:38.652Z,28.57
2018-09-13T07:29:06.253Z,28.33
2018-09-13T07:31:33.977Z,27.33
2018-09-13T07:34:01.748Z,22.67
2018-09-13T07:36:36.127Z,23.73
2018-09-13T07:39:08.039Z,24.90
2018-09-13T07:41:36.316Z,21.57
2018-09-13T07:44:04.062Z,22.63
2018-09-13T07:46:38.073Z,22.07
2018-09-13T07:49:12.002Z,19.93
2018-09-13T07:51:39.647Z,18.80
2018-09-13T07:54:13.478Z,20.00
2018-09-13T07:56:41.083Z,16.67
2018-09-13T07:59:08.718Z,15.07
2018-09-13T08:01:36.464Z,19.13
2018-09-13T08:04:10.468Z,14.93
2018-09-13T08:06:44.378Z,13.97
2018-09-13T08:09:12.823Z,14.30
2018-09-13T08:11:40.686Z,14.63
2018-09-13T08:14:08.344Z,12.23
2018-09-13T08:16:36.014Z,13.17
2018-09-13T08:19:03.704Z,12.40
2018-09-13T08:21:31.383Z,12.87
2018-09-13T08:23:59.460Z,14.17
2018-09-13T08:26:27.232Z,10.17
2018-09-13T08:28:54.909Z,9.00
2018-09-13T08:31:28.746Z,11.10
2018-09-13T08:33:56.543Z,10.90
2018-09-13T08:36:30.363Z,12.80
2018-09-13T08:39:07.540Z,10.23
2018-09-13T08:41:35.448Z,9.40
2018-09-13T08:44:03.100Z,10.50
2018-09-13T08:46:30.764Z,13.00
2018-09-13T08:48:58.523Z,22.77
2018-09-13T08:51:26.187Z,26.23
2018-09-13T08:53:53.855Z,26.10
2018-09-13T08:56:21.620Z,29.40
2018-09-13T08:58:49.652Z,30.33
2018-09-13T09:01:17.355Z,26.27
2018-09-13T09:03:45.041Z,29.27
2018-09-13T09:06:12.711Z,32.70
2018-09-13T09:08:40.423Z,32.93
2018-09-13T09:11:08.175Z,29.33
2018-09-13T09:13:37.288Z,30.67
2018-09-13T09:16:06.164Z,31.00
2018-09-13T09:18:33.974Z,30.17
2018-09-13T09:21:02.150Z,36.47
2018-09-13T09:23:36.434Z,37.83
2018-09-13T09:26:10.880Z,42.23
2018-09-13T09:28:39.108Z,40.23
2018-09-13T09:31:06.791Z,36.60
2018-09-13T09:33:41.290Z,36.97
2018-09-13T09:36:08.914Z,36.23
2018-09-13T09:38:36.592Z,40.33
2018-09-13T09:41:04.186Z,35.23
2018-09-13T09:43:31.873Z,40.53
2018-09-13T09:45:59.536Z,34.87
2018-09-13T09:48:27.233Z,35.17
2018-09-13T09:50:54.908Z,31.90
2018-09-13T09:53:22.704Z,35.00
2018-09-13T09:55:56.508Z,37.53
2018-09-13T09:58:24.091Z,30.67
2018-09-13T10:01:03.681Z,28.60
2018-09-13T10:03:32.399Z,30.83
2018-09-13T10:06:00.738Z,30.20
2018-09-13T10:08:28.446Z,31.00
2018-09-13T10:10:56.059Z,36.40
2018-09-13T10:13:23.736Z,39.53
2018-09-13T10:15:56.936Z,45.98
2018-09-13T10:18:30.103Z,42.40
2018-09-13T10:21:03.422Z,44.03
2018-09-13T10:23:36.894Z,46.10
2018-09-13T10:26:09.975Z,43.25
2018-09-13T10:28:43.437Z,42.90
2018-09-13T10:31:16.676Z,41.28
2018-09-13T10:33:49.941Z,39.80
2018-09-13T10:36:23.189Z,40.52
2018-09-13T10:38:56.574Z,39.95
2018-09-13T10:41:30.803Z,43.65
2018-09-13T10:44:05.113Z,38.17
2018-09-13T10:46:33.139Z,37.25
2018-09-13T10:49:08.752Z,33.18
2018-09-13T10:51:48.253Z,30.55
2018-09-13T10:54:21.561Z,28.07
2018-09-13T10:56:49.272Z,25.80
2018-09-13T10:59:17.419Z,22.30
2018-09-13T11:01:45.433Z,19.43
2018-09-13T11:04:13.655Z,23.75
2018-09-13T11:06:41.781Z,23.83
2018-09-13T11:09:13.507Z,21.23
2018-09-13T11:11:42.176Z,21.87
2018-09-13T11:15:15.193Z,16.35
2018-09-13T11:17:43.427Z,15.40
2018-09-13T11:20:11.595Z,16.35
2018-09-13T11:22:41.013Z,14.10
2018-09-13T11:25:09.097Z,12.20
2018-09-13T11:27:37.247Z,12.82
2018-09-13T11:30:06.766Z,13.00
2018-09-13T11:32:34.821Z,11.73
2018-09-13T11:35:03.091Z,12.07
2018-09-13T11:37:31.068Z,10.75
2018-09-13T11:39:59.343Z,14.30
2018-09-13T11:42:27.481Z,15.03
2018-09-13T11:44:55.358Z,14.53
2018-09-13T11:47:23.491Z,14.10
2018-09-13T11:49:51.508Z,14.35
2018-09-13T11:52:19.599Z,12.37
2018-09-13T11:54:47.792Z,12.00
2018-09-13T11:57:15.707Z,13.75
2018-09-13T11:59:43.872Z,13.68
2018-09-13T12:02:11.766Z,14.35
2018-09-13T12:04:40.007Z,13.68
2018-09-13T12:07:09.408Z,15.72
2018-09-13T12:09:37.554Z,11.95
2018-09-13T12:12:05.661Z,10.90
2018-09-13T12:14:33.920Z,10.25
2018-09-13T12:17:02.244Z,12.25
2018-09-13T12:19:30.733Z,10.08
2018-09-13T12:21:59.400Z,11.75
2018-09-13T12:24:28.977Z,8.78
2018-09-13T12:26:56.627Z,10.70
2018-09-13T12:29:24.244Z,10.13
2018-09-13T12:31:51.806Z,10.70
2018-09-13T12:34:19.499Z,8.70
2018-09-13T12:36:53.528Z,9.95
2018-09-13T12:39:21.208Z,9.60
2018-09-13T12:41:48.844Z,8.38
2018-09-13T12:44:16.490Z,6.47
2018-09-13T12:46:44.129Z,8.20
2018-09-13T12:49:12.584Z,8.08
2018-09-13T12:51:40.322Z,7.15
2018-09-13T12:54:08.003Z,7.35
2018-09-13T12:59:22.325Z,6.90
2018-09-13T13:01:49.961Z,6.65
2018-09-13T13:04:17.626Z,6.67
2018-09-13T13:06:45.350Z,6.17
2018-09-13T13:09:13.007Z,7.20
2018-09-13T13:11:40.649Z,7.83
2018-09-13T13:14:08.483Z,6.35
2018-09-13T13:16:36.213Z,10.35
2018-09-13T13:19:03.839Z,7.87
2018-09-13T13:21:31.532Z,6.22
2018-09-13T13:23:59.187Z,7.45
2018-09-13T13:26:26.910Z,6.17
2018-09-13T13:28:54.491Z,6.67
2018-09-13T13:31:25.131Z,5.45
2018-09-13T13:33:52.928Z,7.30
2018-09-13T13:36:20.792Z,6.17
2018-09-13T13:38:48.513Z,5.28
2018-09-13T13:41:16.170Z,4.92
2018-09-13T13:43:43.927Z,5.33
2018-09-13T13:46:17.710Z,7.03
2018-09-13T13:48:45.477Z,7.28
2018-09-13T13:51:13.247Z,4.33
2018-09-13T13:53:47.167Z,5.87
2018-09-13T13:56:14.850Z,5.28
2018-09-13T13:58:42.493Z,6.62
2018-09-13T14:01:10.110Z,5.20
2018-09-13T14:03:44.030Z,4.50
2018-09-13T14:06:11.675Z,4.72
2018-09-13T14:08:45.687Z,4.40
2018-09-13T14:11:13.240Z,5.42
2018-09-13T14:13:40.898Z,6.33
2018-09-13T14:16:08.575Z,5.10
2018-09-13T14:18:36.463Z,5.05
2018-09-13T14:21:04.224Z,5.12
2018-09-13T14:23:31.780Z,4.25
2018-09-13T14:25:59.445Z,3.95
2018-09-13T14:28:33.420Z,5.37
2018-09-13T14:31:07.433Z,5.60
2018-09-13T14:33:35.297Z,3.85
2018-09-13T14:36:03.150Z,6.20
2018-09-13T14:38:30.753Z,6.00
2018-09-13T14:40:58.404Z,3.87
2018-09-13T14:43:26.233Z,4.87
2018-09-13T14:46:00.130Z,4.00
2018-09-13T14:48:27.737Z,3.87
2018-09-13T14:50:55.463Z,3.87
2018-09-13T14:53:29.356Z,3.02
2018-09-13T14:56:04.480Z,3.52
2018-09-13T14:58:32.049Z,5.17
2018-09-13T15:01:00.197Z,3.45
2018-09-13T15:03:28.388Z,4.08
2018-09-13T15:05:56.331Z,4.10
2018-09-13T15:08:24.548Z,4.65
2018-09-13T15:10:52.568Z,3.50
2018-09-13T15:13:20.678Z,4.87
2018-09-13T15:15:55.019Z,3.25
2018-09-13T15:18:23.572Z,3.10
2018-09-13T15:20:51.706Z,3.45
2018-09-13T15:23:19.639Z,4.67
2018-09-13T15:25:47.691Z,3.92
2018-09-13T15:28:15.687Z,4.35
2018-09-13T15:30:43.659Z,2.12
2018-09-13T15:33:17.897Z,4.80
2018-09-13T15:35:45.896Z,3.17
2018-09-13T15:38:14.190Z,4.40
2018-09-13T15:40:42.114Z,3.98
2018-09-13T15:43:09.926Z,6.60
2018-09-13T15:45:37.984Z,3.92
2018-09-13T15:48:05.693Z,3.42
2018-09-13T15:50:33.332Z,3.65
2018-09-13T15:53:00.900Z,4.58
2018-09-13T15:55:28.535Z,3.90
2018-09-13T15:57:56.163Z,4.85
2018-09-13T16:00:23.764Z,3.20
2018-09-13T16:02:51.591Z,5.08
2018-09-13T16:05:25.605Z,4.15
2018-09-13T16:07:53.298Z,3.55
2018-09-13T16:10:27.091Z,5.00
2018-09-13T16:12:54.895Z,3.27
2018-09-13T16:15:28.567Z,3.87
2018-09-13T16:17:56.137Z,4.12
2018-09-13T16:20:26.227Z,4.35
2018-09-13T16:22:51.559Z,3.08
2018-09-13T16:25:19.196Z,3.95
2018-09-13T16:27:46.844Z,5.33
2018-09-13T16:30:14.502Z,4.30
2018-09-13T16:32:42.127Z,3.50
2018-09-13T16:35:09.900Z,3.25
2018-09-13T16:37:43.242Z,2.25
2018-09-13T16:40:22.777Z,5.33
2018-09-13T16:43:02.544Z,3.40
2018-09-13T16:45:36.377Z,3.37
2018-09-13T16:48:05.040Z,4.00
2018-09-13T16:50:32.553Z,2.92
2018-09-13T16:53:00.207Z,7.15
2018-09-13T16:55:27.737Z,3.85
2018-09-13T16:57:55.419Z,2.55
2018-09-13T17:00:24.830Z,5.35
2018-09-13T17:02:58.642Z,3.50
2018-09-13T17:05:26.242Z,3.65
2018-09-13T17:07:53.895Z,4.45
2018-09-13T17:10:21.565Z,3.55
2018-09-13T17:12:49.279Z,4.78
2018-09-13T17:15:23.504Z,4.40
2018-09-13T17:17:51.163Z,3.45
2018-09-13T17:20:18.862Z,5.15
2018-09-13T17:22:52.897Z,2.75
2018-09-13T17:25:26.868Z,4.37
2018-09-13T17:27:54.535Z,3.05
2018-09-13T17:30:22.159Z,4.80
2018-09-13T17:32:56.075Z,5.47
2018-09-13T17:35:30.203Z,3.25
2018-09-13T17:37:58.188Z,4.33
2018-09-13T17:42:51.458Z,3.98
2018-09-13T17:45:19.073Z,5.05
2018-09-13T17:47:53.025Z,3.75
2018-09-13T17:50:20.824Z,4.90
2018-09-13T17:52:48.580Z,3.72
2018-09-13T17:55:16.360Z,4.12
2018-09-13T17:57:43.967Z,4.80
2018-09-13T18:00:12.948Z,2.67
2018-09-13T18:02:46.880Z,3.70
2018-09-13T18:05:14.548Z,5.28
2018-09-13T18:07:48.500Z,9.23
2018-09-13T18:10:22.320Z,4.57
2018-09-13T18:12:56.220Z,4.63
2018-09-13T18:15:30.116Z,5.53
2018-09-13T18:18:05.383Z,3.27
2018-09-13T18:20:33.081Z,7.27
2018-09-13T18:23:00.613Z,4.77
2018-09-13T18:25:28.168Z,5.87
2018-09-13T18:27:55.892Z,5.20
2018-09-13T18:30:23.632Z,4.70
2018-09-13T18:32:52.188Z,4.47
2018-09-13T18:35:19.867Z,4.70
2018-09-13T18:37:47.571Z,5.67
2018-09-13T18:40:15.299Z,5.63
2018-09-13T18:42:42.970Z,7.30
2018-09-13T18:45:11.475Z,7.83
2018-09-13T18:47:39.407Z,5.80
2018-09-13T18:50:07.078Z,6.17
2018-09-13T18:52:34.687Z,5.27
2018-09-13T18:55:02.622Z,5.20
2018-09-13T18:57:30.272Z,6.50
2018-09-13T18:59:58.020Z,6.70
2018-09-13T19:02:25.804Z,4.73
2018-09-13T19:04:53.465Z,6.73
2018-09-13T19:07:21.149Z,5.33
2018-09-13T19:09:48.812Z,3.97
2018-09-13T19:12:17.115Z,4.37
2018-09-13T19:14:44.933Z,5.03
2018-09-13T19:17:12.801Z,4.63
2018-09-13T19:19:40.453Z,5.00
2018-09-13T19:22:08.187Z,5.60
2018-09-13T19:24:35.953Z,5.53
2018-09-13T19:27:03.667Z,6.43
2018-09-13T19:29:31.393Z,4.07
2018-09-13T19:31:59.220Z,5.50
2018-09-13T19:34:26.815Z,6.00
2018-09-13T19:36:54.527Z,5.47
2018-09-13T19:39:23.163Z,5.47
2018-09-13T19:41:50.924Z,5.13
2018-09-13T19:44:18.872Z,4.80
2018-09-13T19:46:46.719Z,4.70
2018-09-13T19:49:14.408Z,7.53
2018-09-13T19:51:42.335Z,5.57
2018-09-13T19:54:09.847Z,7.17
2018-09-13T19:56:39.872Z,7.93
2018-09-13T19:59:07.568Z,4.10
2018-09-13T20:01:35.309Z,4.67
2018-09-13T20:04:02.938Z,6.67
2018-09-13T20:06:30.567Z,4.10
2018-09-13T20:08:58.244Z,6.17
2018-09-13T20:11:25.978Z,7.10
2018-09-13T20:13:53.787Z,7.17
2018-09-13T20:16:21.382Z,6.90
2018-09-13T20:18:49.960Z,6.00
2018-09-13T20:21:17.684Z,8.03
2018-09-13T20:23:45.327Z,7.37
2018-09-13T20:26:12.891Z,8.03
2018-09-13T20:28:40.639Z,6.93
2018-09-13T20:31:08.179Z,8.23
2018-09-13T20:33:35.778Z,6.53
2018-09-13T20:36:03.459Z,9.87
2018-09-13T20:38:31.165Z,6.90
2018-09-13T20:40:58.780Z,6.97
2018-09-13T20:43:26.445Z,8.03
2018-09-13T20:45:54.172Z,10.23
2018-09-13T20:48:21.939Z,7.97
2018-09-13T20:50:49.706Z,8.80
2018-09-13T20:53:17.379Z,7.63
2018-09-13T20:55:46.649Z,8.57
2018-09-13T20:58:14.345Z,8.60
2018-09-13T21:00:42.009Z,9.53
2018-09-13T21:03:09.658Z,9.70
2018-09-13T21:05:37.298Z,10.07
2018-09-13T21:08:05.035Z,11.53
2018-09-13T21:10:32.821Z,10.07
2018-09-13T21:13:00.485Z,11.00
2018-09-13T21:15:28.111Z,8.77
2018-09-13T21:17:55.798Z,6.77
2018-09-13T21:20:23.435Z,7.80
2018-09-13T21:22:51.121Z,8.63
2018-09-13T21:25:18.779Z,6.53
2018-09-13T21:27:46.896Z,7.23
2018-09-13T21:30:14.695Z,5.30
2018-09-13T21:32:42.455Z,7.67
2018-09-13T21:35:10.159Z,7.53
2018-09-13T21:37:37.799Z,7.27
2018-09-13T21:40:05.575Z,6.33
2018-09-13T21:42:33.312Z,5.53
2018-09-13T21:45:00.965Z,6.17
2018-09-13T21:47:28.583Z,4.70
2018-09-13T21:49:56.143Z,5.07
2018-09-13T21:52:23.812Z,6.53
2018-09-13T21:54:51.507Z,5.00
2018-09-13T21:57:19.180Z,7.17
2018-09-13T21:59:46.794Z,6.07
2018-09-13T22:02:14.423Z,8.37
2018-09-13T22:04:42.079Z,9.23
2018-09-13T22:07:09.873Z,5.53
2018-09-13T22:09:37.498Z,6.20
2018-09-13T22:12:05.273Z,5.00
2018-09-13T22:14:32.844Z,8.23
2018-09-13T22:17:00.808Z,6.27
2018-09-13T22:19:28.500Z,5.23
2018-09-13T22:21:56.161Z,5.03
2018-09-13T22:24:23.813Z,5.10
2018-09-13T22:26:51.565Z,6.77
2018-09-13T22:29:19.283Z,5.60
2018-09-13T22:31:46.883Z,6.73
2018-09-13T22:34:14.556Z,6.07
2018-09-13T22:36:42.075Z,8.70
2018-09-13T22:39:11.091Z,8.23
2018-09-13T22:41:40.308Z,6.30
2018-09-13T22:44:07.999Z,8.53
2018-09-13T22:46:35.623Z,8.00
2018-09-13T22:49:03.380Z,5.60
2018-09-13T22:51:31.005Z,7.93
2018-09-13T22:53:58.586Z,7.93
2018-09-13T22:56:26.194Z,7.23
2018-09-13T22:58:53.762Z,5.73
2018-09-13T23:01:21.449Z,7.20
2018-09-13T23:03:49.108Z,5.93
2018-09-13T23:06:16.724Z,6.77
2018-09-13T23:08:44.473Z,9.23
2018-09-13T23:11:12.210Z,8.37
2018-09-13T23:13:39.932Z,6.40
2018-09-13T23:16:07.695Z,9.87
2018-09-13T23:18:35.247Z,9.37
2018-09-13T23:21:02.902Z,4.97
2018-09-13T23:23:30.637Z,5.90
2018-09-13T23:25:58.296Z,7.80
2018-09-13T23:28:27.934Z,6.23
2018-09-13T23:30:55.613Z,5.50
2018-09-13T23:33:23.284Z,8.00
2018-09-13T23:35:50.924Z,6.40
2018-09-13T23:38:18.489Z,7.50
2018-09-13T23:40:46.289Z,7.10
2018-09-13T23:43:13.790Z,6.97
2018-09-13T23:45:41.540Z,7.27
2018-09-13T23:48:09.133Z,6.93
2018-09-13T23:50:36.805Z,6.77
2018-09-13T23:53:04.540Z,7.53
2018-09-13T23:55:32.239Z,7.97
2018-09-13T23:57:59.840Z,6.13
